createdAt,value
2019-06-01T00:00:15.307Z,87.02
2019-06-01T00:01:15.273Z,86.92
2019-06-01T00:02:15.265Z,86.61
2019-06-01T00:03:15.249Z,86.61
2019-06-01T00:04:15.236Z,86.61
2019-06-01T00:05:15.230Z,86.71
2019-06-01T00:06:15.215Z,86.61
2019-06-01T00:07:15.205Z,87.02
2019-06-01T00:08:15.291Z,87.06
2019-06-01T00:09:15.190Z,87.16
2019-06-01T00:10:15.192Z,87.06
2019-06-01T00:11:15.166Z,86.96
2019-06-01T00:12:15.145Z,86.65
2019-06-01T00:13:15.137Z,86.86
2019-06-01T00:14:15.137Z,87.06
2019-06-01T00:15:15.128Z,87.06
2019-06-01T00:16:15.116Z,87.06
2019-06-01T00:17:15.095Z,86.96
2019-06-01T00:18:15.087Z,87.16
2019-06-01T00:19:15.086Z,87.16
2019-06-01T00:20:15.090Z,87.06
2019-06-01T00:21:15.056Z,87.26
2019-06-01T00:22:15.055Z,87.26
2019-06-01T00:23:15.035Z,87.37
2019-06-01T00:24:15.026Z,87.47
2019-06-01T00:25:15.036Z,87.57
2019-06-01T00:26:15.005Z,87.47
2019-06-01T00:27:14.994Z,87.26
2019-06-01T00:28:14.984Z,87.30
2019-06-01T00:29:14.975Z,87.30
2019-06-01T00:30:26.505Z,87.30
2019-06-01T00:31:15.954Z,87.51
2019-06-01T00:32:14.943Z,87.30
2019-06-01T00:33:14.933Z,87.10
2019-06-01T00:34:14.921Z,87.30
2019-06-01T00:35:15.009Z,87.82
2019-06-01T00:36:14.966Z,88.06
2019-06-01T00:37:14.914Z,88.02
2019-06-01T00:38:14.874Z,87.96
2019-06-01T00:39:14.869Z,87.76
2019-06-01T00:40:14.894Z,87.85
2019-06-01T00:41:14.854Z,87.85
2019-06-01T00:42:14.834Z,87.96
2019-06-01T00:43:14.835Z,87.85
2019-06-01T00:44:14.813Z,88.06
2019-06-01T00:45:14.832Z,88.26
2019-06-01T00:46:14.802Z,88.26
2019-06-01T00:47:14.801Z,88.47
2019-06-01T00:48:14.782Z,88.26
2019-06-01T00:49:14.777Z,88.37
2019-06-01T00:50:14.762Z,88.47
2019-06-01T00:51:14.764Z,88.57
2019-06-01T00:52:14.745Z,88.47
2019-06-01T00:53:14.733Z,88.37
2019-06-01T00:54:14.731Z,88.78
2019-06-01T00:55:14.712Z,88.67
2019-06-01T00:56:14.721Z,88.47
2019-06-01T00:57:14.697Z,88.47
2019-06-01T00:58:14.684Z,88.78
2019-06-01T00:59:14.671Z,88.67
2019-06-01T01:00:14.661Z,88.78
2019-06-01T01:01:14.661Z,88.88
2019-06-01T01:02:14.642Z,88.88
2019-06-01T01:03:14.692Z,88.98
2019-06-01T01:04:14.611Z,88.67
2019-06-01T01:05:14.613Z,88.82
2019-06-01T01:06:14.610Z,88.51
2019-06-01T01:07:14.590Z,88.61
2019-06-01T01:08:14.580Z,89.12
2019-06-01T01:09:14.560Z,88.92
2019-06-01T01:10:14.559Z,89.02
2019-06-01T01:11:14.559Z,88.92
2019-06-01T01:12:14.538Z,88.92
2019-06-01T01:13:14.536Z,89.12
2019-06-01T01:14:14.519Z,89.12
2019-06-01T01:15:14.615Z,89.12
2019-06-01T01:16:14.510Z,89.23
2019-06-01T01:17:14.491Z,89.32
2019-06-01T01:18:14.485Z,89.23
2019-06-01T01:19:14.472Z,89.63
2019-06-01T01:20:14.459Z,89.32
2019-06-01T01:21:14.458Z,88.96
2019-06-01T01:22:14.450Z,88.85
2019-06-01T01:23:14.438Z,88.96
2019-06-01T01:24:14.420Z,89.06
2019-06-01T01:25:14.417Z,89.17
2019-06-01T01:26:14.418Z,89.26
2019-06-01T01:27:14.398Z,89.26
2019-06-01T01:28:14.386Z,89.37
2019-06-01T01:29:14.367Z,89.06
2019-06-01T01:30:14.358Z,89.06
2019-06-01T01:31:14.575Z,89.06
2019-06-01T01:32:14.348Z,88.85
2019-06-01T01:33:14.336Z,88.85
2019-06-01T01:34:14.328Z,88.76
2019-06-01T01:35:14.309Z,88.76
2019-06-01T01:36:14.307Z,88.96
2019-06-01T01:37:14.286Z,89.26
2019-06-01T01:38:14.276Z,89.17
2019-06-01T01:39:14.266Z,89.17
2019-06-01T01:40:14.256Z,89.06
2019-06-01T01:41:14.259Z,88.85
2019-06-01T01:42:14.236Z,88.85
2019-06-01T01:43:14.256Z,88.96
2019-06-01T01:44:14.268Z,88.96
2019-06-01T01:45:14.206Z,88.96
2019-06-01T01:46:14.225Z,88.76
2019-06-01T01:47:14.494Z,88.65
2019-06-01T01:48:14.191Z,88.65
2019-06-01T01:49:14.175Z,88.49
2019-06-01T01:50:14.155Z,88.59
2019-06-01T01:51:14.145Z,88.90
2019-06-01T01:52:14.155Z,89.11
2019-06-01T01:53:14.135Z,89.20
2019-06-01T01:54:14.125Z,89.31
2019-06-01T01:55:14.114Z,89.11
2019-06-01T01:56:14.105Z,89.20
2019-06-01T01:57:14.112Z,89.20
2019-06-01T01:58:14.077Z,89.20
2019-06-01T01:59:14.064Z,89.00
2019-06-01T02:00:14.057Z,89.11
2019-06-01T02:01:22.279Z,89.41
2019-06-01T02:02:15.053Z,89.41
2019-06-01T02:03:14.028Z,89.41
2019-06-01T02:04:14.017Z,89.61
2019-06-01T02:05:14.013Z,89.51
2019-06-01T02:06:14.005Z,89.41
2019-06-01T02:07:13.993Z,89.51
2019-06-01T02:08:13.981Z,89.41
2019-06-01T02:09:13.973Z,89.61
2019-06-01T02:10:13.963Z,89.72
2019-06-01T02:11:13.952Z,89.61
2019-06-01T02:12:13.952Z,89.41
2019-06-01T02:13:13.930Z,89.31
2019-06-01T02:14:13.922Z,89.35
2019-06-01T02:15:13.902Z,89.25
2019-06-01T02:16:13.902Z,89.15
2019-06-01T02:17:13.899Z,89.35
2019-06-01T02:18:13.887Z,89.35
2019-06-01T02:19:13.870Z,89.35
2019-06-01T02:20:13.860Z,89.56
2019-06-01T02:21:13.850Z,89.86
2019-06-01T02:22:13.851Z,89.97
2019-06-01T02:23:13.844Z,89.76
2019-06-01T02:24:13.820Z,89.65
2019-06-01T02:25:13.810Z,89.76
2019-06-01T02:26:13.809Z,89.76
2019-06-01T02:27:13.838Z,89.76
2019-06-01T02:28:13.780Z,89.86
2019-06-01T02:29:13.771Z,89.86
2019-06-01T02:30:13.779Z,89.86
2019-06-01T02:31:13.750Z,89.76
2019-06-01T02:32:13.761Z,89.50
2019-06-01T02:33:13.732Z,89.39
2019-06-01T02:34:13.719Z,89.70
2019-06-01T02:35:13.714Z,89.90
2019-06-01T02:36:13.699Z,89.90
2019-06-01T02:37:13.708Z,89.90
2019-06-01T02:38:13.680Z,90.00
2019-06-01T02:39:13.688Z,89.90
2019-06-01T02:40:13.670Z,89.90
2019-06-01T02:41:13.659Z,89.90
2019-06-01T02:42:13.658Z,89.80
2019-06-01T02:43:13.647Z,89.80
2019-06-01T02:44:13.631Z,89.80
2019-06-01T02:45:13.620Z,89.80
2019-06-01T02:46:13.607Z,89.70
2019-06-01T02:47:13.622Z,89.80
2019-06-01T02:48:13.600Z,89.70
2019-06-01T02:49:13.578Z,89.59
2019-06-01T02:50:13.574Z,89.59
2019-06-01T02:51:13.566Z,89.70
2019-06-01T02:52:13.568Z,89.80
2019-06-01T02:53:13.552Z,89.90
2019-06-01T02:54:13.536Z,89.90
2019-06-01T02:55:13.527Z,90.11
2019-06-01T02:56:13.517Z,90.21
2019-06-01T02:57:13.518Z,90.25
2019-06-01T02:58:13.498Z,90.56
2019-06-01T02:59:13.487Z,90.56
2019-06-01T03:00:13.470Z,90.56
2019-06-01T03:01:13.456Z,90.45
2019-06-01T03:02:15.023Z,90.25
2019-06-01T03:03:13.435Z,90.05
2019-06-01T03:04:13.446Z,89.94
2019-06-01T03:05:13.455Z,90.15
2019-06-01T03:06:13.438Z,90.45
2019-06-01T03:07:13.425Z,90.45
2019-06-01T03:08:13.396Z,90.45
2019-06-01T03:09:13.406Z,90.36
2019-06-01T03:10:13.388Z,90.36
2019-06-01T03:11:13.377Z,90.36
2019-06-01T03:12:13.355Z,90.56
2019-06-01T03:13:13.365Z,90.45
2019-06-01T03:14:13.362Z,90.25
2019-06-01T03:15:13.329Z,90.25
2019-06-01T03:16:13.314Z,90.36
2019-06-01T03:17:13.304Z,90.25
2019-06-01T03:18:13.294Z,90.36
2019-06-01T03:19:13.286Z,90.36
2019-06-01T03:20:13.265Z,90.45
2019-06-01T03:21:13.263Z,90.45
2019-06-01T03:22:13.255Z,90.45
2019-06-01T03:23:13.273Z,90.56
2019-06-01T03:24:13.517Z,90.70
2019-06-01T03:25:13.232Z,90.81
2019-06-01T03:26:13.223Z,90.60
2019-06-01T03:27:13.212Z,90.60
2019-06-01T03:28:13.223Z,90.50
2019-06-01T03:29:13.201Z,90.50
2019-06-01T03:30:15.686Z,90.70
2019-06-01T03:31:13.379Z,90.81
2019-06-01T03:32:29.716Z,90.81
2019-06-01T03:33:14.566Z,90.91
2019-06-01T03:34:13.976Z,90.91
2019-06-01T03:35:13.199Z,90.91
2019-06-01T03:36:13.180Z,90.81
2019-06-01T03:37:13.415Z,91.01
2019-06-01T03:38:13.120Z,90.91
2019-06-01T03:39:13.227Z,90.70
2019-06-01T03:40:23.118Z,90.70
2019-06-01T03:41:14.067Z,90.81
2019-06-01T03:42:13.062Z,90.81
2019-06-01T03:43:13.061Z,90.60
2019-06-01T03:44:13.146Z,90.81
2019-06-01T03:45:13.243Z,90.91
2019-06-01T03:46:13.151Z,90.81
2019-06-01T03:47:13.012Z,90.70
2019-06-01T03:48:13.045Z,90.60
2019-06-01T03:49:12.990Z,90.70
2019-06-01T03:50:13.291Z,90.70
2019-06-01T03:51:12.960Z,90.70
2019-06-01T03:52:13.153Z,90.70
2019-06-01T03:53:12.963Z,90.70
2019-06-01T03:54:13.239Z,90.70
2019-06-01T03:55:12.930Z,90.60
2019-06-01T03:56:12.914Z,90.60
2019-06-01T03:57:12.912Z,90.60
2019-06-01T03:58:12.908Z,90.70
2019-06-01T03:59:12.889Z,90.81
2019-06-01T04:00:12.878Z,90.75
2019-06-01T04:01:12.867Z,90.64
2019-06-01T04:02:12.866Z,90.75
2019-06-01T04:03:12.857Z,90.70
2019-06-01T04:04:12.836Z,90.81
2019-06-01T04:05:12.825Z,90.84
2019-06-01T04:06:12.807Z,90.84
2019-06-01T04:07:12.817Z,90.81
2019-06-01T04:08:12.810Z,90.75
2019-06-01T04:09:12.789Z,90.70
2019-06-01T04:10:12.785Z,90.70
2019-06-01T04:11:12.757Z,90.81
2019-06-01T04:12:12.748Z,90.81
2019-06-01T04:13:12.757Z,90.70
2019-06-01T04:14:12.741Z,90.70
2019-06-01T04:15:16.236Z,90.60
2019-06-01T04:16:12.717Z,90.50
2019-06-01T04:17:12.704Z,90.60
2019-06-01T04:18:13.958Z,90.70
2019-06-01T04:19:12.756Z,90.70
2019-06-01T04:20:12.754Z,90.70
2019-06-01T04:21:12.688Z,90.70
2019-06-01T04:22:12.657Z,90.81
2019-06-01T04:23:12.647Z,90.81
2019-06-01T04:24:12.660Z,90.81
2019-06-01T04:25:12.630Z,90.60
2019-06-01T04:26:12.630Z,90.60
2019-06-01T04:27:12.602Z,90.50
2019-06-01T04:28:12.746Z,90.39
2019-06-01T04:29:12.708Z,90.30
2019-06-01T04:30:13.710Z,90.30
2019-06-01T04:31:12.828Z,90.09
2019-06-01T04:32:12.881Z,89.89
2019-06-01T04:33:13.285Z,90.09
2019-06-01T04:34:13.099Z,90.09
2019-06-01T04:35:13.234Z,89.98
2019-06-01T04:36:13.091Z,90.30
2019-06-01T04:37:13.346Z,90.50
2019-06-01T04:38:13.418Z,90.50
2019-06-01T04:39:13.637Z,90.60
2019-06-01T04:40:13.625Z,90.60
2019-06-01T04:41:13.979Z,90.60
2019-06-01T04:42:12.469Z,90.60
2019-06-01T04:43:12.472Z,90.50
2019-06-01T04:44:12.442Z,90.50
2019-06-01T04:45:12.616Z,90.50
2019-06-01T04:46:12.459Z,90.60
2019-06-01T04:47:12.596Z,90.70
2019-06-01T04:48:12.553Z,90.70
2019-06-01T04:49:13.396Z,90.70
2019-06-01T04:50:13.137Z,90.60
2019-06-01T04:51:13.501Z,90.39
2019-06-01T04:52:13.562Z,90.19
2019-06-01T04:53:13.418Z,90.09
2019-06-01T04:54:14.427Z,90.30
2019-06-01T04:55:13.052Z,90.30
2019-06-01T04:56:13.105Z,90.30
2019-06-01T04:57:13.051Z,90.50
2019-06-01T04:58:13.055Z,90.56
2019-06-01T04:59:13.003Z,90.45
2019-06-01T05:00:25.790Z,90.50
2019-06-01T05:01:13.269Z,90.45
2019-06-01T05:02:13.151Z,90.66
2019-06-01T05:03:13.494Z,90.66
2019-06-01T05:04:13.267Z,90.77
2019-06-01T05:05:13.293Z,90.77
2019-06-01T05:06:13.410Z,90.45
2019-06-01T05:07:13.364Z,90.45
2019-06-01T05:08:12.671Z,90.45
2019-06-01T05:09:13.297Z,90.36
2019-06-01T05:10:14.134Z,90.25
2019-06-01T05:11:13.443Z,90.25
2019-06-01T05:12:13.512Z,90.36
2019-06-01T05:13:12.165Z,90.36
2019-06-01T05:14:12.147Z,90.36
2019-06-01T05:15:12.147Z,90.15
2019-06-01T05:16:14.409Z,90.05
2019-06-01T05:17:13.418Z,90.15
2019-06-01T05:18:12.178Z,90.05
2019-06-01T05:19:12.299Z,90.15
2019-06-01T05:20:12.552Z,89.94
2019-06-01T05:21:12.834Z,89.94
2019-06-01T05:22:12.575Z,89.84
2019-06-01T05:23:12.685Z,89.84
2019-06-01T05:24:12.699Z,90.15
2019-06-01T05:25:13.506Z,90.25
2019-06-01T05:26:13.164Z,90.05
2019-06-01T05:27:13.068Z,90.05
2019-06-01T05:28:13.234Z,90.25
2019-06-01T05:29:13.434Z,90.21
2019-06-01T05:30:12.005Z,90.52
2019-06-01T05:31:19.015Z,90.72
2019-06-01T05:32:12.977Z,90.72
2019-06-01T05:33:24.667Z,90.72
2019-06-01T05:34:13.813Z,90.62
2019-06-01T05:35:11.969Z,90.41
2019-06-01T05:36:12.071Z,90.72
2019-06-01T05:37:12.363Z,90.62
2019-06-01T05:38:12.212Z,90.62
2019-06-01T05:39:12.340Z,90.72
2019-06-01T05:40:12.474Z,90.52
2019-06-01T05:41:13.151Z,91.13
2019-06-01T05:42:12.558Z,91.23
2019-06-01T05:43:15.685Z,91.13
2019-06-01T05:44:12.895Z,91.03
2019-06-01T05:45:12.928Z,91.09
2019-06-01T05:46:11.901Z,91.39
2019-06-01T05:47:12.175Z,91.29
2019-06-01T05:48:13.151Z,91.29
2019-06-01T05:49:13.257Z,91.29
2019-06-01T05:50:12.244Z,91.60
2019-06-01T05:51:13.696Z,92.11
2019-06-01T05:52:12.417Z,91.86
2019-06-01T05:53:12.487Z,91.56
2019-06-01T05:54:12.536Z,91.46
2019-06-01T05:55:12.845Z,91.46
2019-06-01T05:56:12.709Z,91.46
2019-06-01T05:57:12.671Z,91.66
2019-06-01T05:58:12.856Z,92.33
2019-06-01T05:59:11.929Z,92.84
2019-06-01T06:00:13.005Z,92.74
2019-06-01T06:01:12.388Z,92.33
2019-06-01T06:02:11.664Z,92.33
2019-06-01T06:03:14.955Z,92.02
2019-06-01T06:04:11.661Z,92.23
2019-06-01T06:05:12.558Z,92.13
2019-06-01T06:06:11.734Z,92.19
2019-06-01T06:07:12.736Z,91.88
2019-06-01T06:08:12.710Z,92.08
2019-06-01T06:09:12.075Z,92.29
2019-06-01T06:10:11.851Z,92.08
2019-06-01T06:11:12.834Z,92.39
2019-06-01T06:12:11.578Z,92.35
2019-06-01T06:13:11.560Z,92.45
2019-06-01T06:14:11.565Z,92.45
2019-06-01T06:15:11.559Z,92.24
2019-06-01T06:16:11.686Z,92.04
2019-06-01T06:17:13.775Z,91.94
2019-06-01T06:18:11.724Z,91.79
2019-06-01T06:19:12.547Z,91.89
2019-06-01T06:20:11.831Z,92.10
2019-06-01T06:21:12.577Z,92.30
2019-06-01T06:22:12.016Z,92.61
2019-06-01T06:23:12.244Z,92.61
2019-06-01T06:24:12.175Z,93.02
2019-06-01T06:25:14.017Z,93.18
2019-06-01T06:26:11.492Z,92.36
2019-06-01T06:27:12.355Z,92.26
2019-06-01T06:28:12.462Z,92.16
2019-06-01T06:29:12.657Z,91.96
2019-06-01T06:30:11.397Z,92.05
2019-06-01T06:31:11.382Z,91.91
2019-06-01T06:32:11.367Z,91.81
2019-06-01T06:33:11.375Z,91.91
2019-06-01T06:34:11.347Z,92.01
2019-06-01T06:35:11.336Z,91.77
2019-06-01T06:36:11.337Z,91.87
2019-06-01T06:37:11.314Z,92.27
2019-06-01T06:38:11.297Z,92.27
2019-06-01T06:39:11.296Z,92.27
2019-06-01T06:40:11.284Z,92.64
2019-06-01T06:41:11.296Z,92.64
2019-06-01T06:42:11.256Z,92.84
2019-06-01T06:43:22.106Z,92.64
2019-06-01T06:44:12.236Z,92.60
2019-06-01T06:45:11.234Z,92.80
2019-06-01T06:46:11.237Z,92.80
2019-06-01T06:47:11.206Z,93.31
2019-06-01T06:48:11.203Z,93.41
2019-06-01T06:49:11.186Z,93.16
2019-06-01T06:50:14.059Z,93.37
2019-06-01T06:51:11.184Z,93.06
2019-06-01T06:52:11.161Z,92.71
2019-06-01T06:53:24.536Z,92.61
2019-06-01T06:54:14.530Z,92.41
2019-06-01T06:55:11.123Z,91.90
2019-06-01T06:56:11.124Z,91.45
2019-06-01T06:57:11.103Z,91.75
2019-06-01T06:58:11.089Z,91.35
2019-06-01T06:59:11.804Z,91.65
2019-06-01T07:00:11.069Z,91.30
2019-06-01T07:01:12.197Z,91.30
2019-06-01T07:02:11.043Z,91.00
2019-06-01T07:03:11.033Z,90.70
2019-06-01T07:04:12.975Z,90.45
2019-06-01T07:05:11.004Z,90.25
2019-06-01T07:06:11.012Z,89.74
2019-06-01T07:07:11.003Z,89.43
2019-06-01T07:08:10.975Z,88.99
2019-06-01T07:09:10.977Z,88.99
2019-06-01T07:10:10.968Z,88.58
2019-06-01T07:11:12.043Z,88.58
2019-06-01T07:12:10.925Z,88.23
2019-06-01T07:13:10.914Z,88.23
2019-06-01T07:14:10.909Z,88.34
2019-06-01T07:15:10.906Z,87.83
2019-06-01T07:16:10.908Z,87.79
2019-06-01T07:17:10.881Z,88.09
2019-06-01T07:18:10.861Z,87.99
2019-06-01T07:19:10.865Z,87.45
2019-06-01T07:20:10.841Z,86.73
2019-06-01T07:21:10.843Z,86.22
2019-06-01T07:22:10.828Z,85.62
2019-06-01T07:23:10.807Z,85.38
2019-06-01T07:24:10.793Z,85.27
2019-06-01T07:25:10.787Z,85.07
2019-06-01T07:26:10.781Z,85.03
2019-06-01T07:27:10.785Z,84.63
2019-06-01T07:28:10.772Z,84.02
2019-06-01T07:29:10.731Z,83.31
2019-06-01T07:30:10.741Z,82.46
2019-06-01T07:31:10.721Z,81.96
2019-06-01T07:32:10.691Z,81.76
2019-06-01T07:33:10.691Z,81.21
2019-06-01T07:34:10.684Z,81.11
2019-06-01T07:35:10.650Z,81.11
2019-06-01T07:36:10.660Z,81.51
2019-06-01T07:37:10.639Z,81.82
2019-06-01T07:38:10.621Z,80.97
2019-06-01T07:39:10.623Z,79.96
2019-06-01T07:40:13.665Z,79.66
2019-06-01T07:41:10.600Z,78.50
2019-06-01T07:42:10.642Z,78.91
2019-06-01T07:43:10.564Z,78.91
2019-06-01T07:44:10.550Z,77.06
2019-06-01T07:45:10.539Z,77.06
2019-06-01T07:46:10.539Z,76.65
2019-06-01T07:47:10.514Z,75.91
2019-06-01T07:48:10.501Z,76.51
2019-06-01T07:49:10.499Z,76.92
2019-06-01T07:50:10.502Z,76.92
2019-06-01T07:51:10.505Z,76.28
2019-06-01T07:52:13.279Z,77.19
2019-06-01T07:53:10.439Z,77.89
2019-06-01T07:54:10.419Z,77.59
2019-06-01T07:55:10.412Z,77.04
2019-06-01T07:56:10.399Z,76.24
2019-06-01T07:57:10.399Z,75.03
2019-06-01T07:58:10.387Z,75.20
2019-06-01T07:59:10.359Z,75.50
2019-06-01T08:00:10.348Z,75.80
2019-06-01T08:01:10.341Z,75.60
2019-06-01T08:02:10.342Z,75.46
2019-06-01T08:03:10.322Z,74.86
2019-06-01T08:04:10.299Z,75.06
2019-06-01T08:05:10.288Z,74.26
2019-06-01T08:06:10.278Z,72.74
2019-06-01T08:07:10.305Z,71.91
2019-06-01T08:08:10.259Z,70.66
2019-06-01T08:09:10.240Z,69.05
2019-06-01T08:10:10.227Z,68.65
2019-06-01T08:11:10.218Z,68.62
2019-06-01T08:12:10.288Z,67.91
2019-06-01T08:13:10.198Z,67.41
2019-06-01T08:14:10.179Z,66.50
2019-06-01T08:15:10.174Z,65.90
2019-06-01T08:16:10.160Z,65.39
2019-06-01T08:17:10.168Z,66.07
2019-06-01T08:18:10.138Z,66.47
2019-06-01T08:19:10.141Z,66.47
2019-06-01T08:20:10.123Z,66.77
2019-06-01T08:21:10.108Z,65.16
2019-06-01T08:22:10.213Z,64.86
2019-06-01T08:23:10.087Z,65.16
2019-06-01T08:24:10.111Z,65.97
2019-06-01T08:25:10.067Z,65.97
2019-06-01T08:26:10.058Z,65.03
2019-06-01T08:27:10.050Z,65.23
2019-06-01T08:28:10.028Z,65.03
2019-06-01T08:29:10.017Z,59.78
2019-06-01T08:30:09.997Z,60.38
2019-06-01T08:31:09.988Z,59.05
2019-06-01T08:32:09.995Z,61.22
2019-06-01T08:33:09.978Z,61.13
2019-06-01T08:34:09.995Z,59.79
2019-06-01T08:35:09.948Z,59.69
2019-06-01T08:36:09.928Z,58.39
2019-06-01T08:37:09.940Z,58.29
2019-06-01T08:38:09.908Z,59.36
2019-06-01T08:39:09.900Z,58.96
2019-06-01T08:40:09.877Z,56.96
2019-06-01T08:41:09.867Z,55.95
2019-06-01T08:42:09.877Z,54.43
2019-06-01T08:43:09.864Z,54.90
2019-06-01T08:44:09.837Z,56.30
2019-06-01T08:45:09.827Z,54.87
2019-06-01T08:46:09.817Z,56.48
2019-06-01T08:47:09.817Z,55.77
2019-06-01T08:48:09.818Z,55.07
2019-06-01T08:49:09.777Z,55.27
2019-06-01T08:50:09.767Z,56.17
2019-06-01T08:51:09.766Z,57.68
2019-06-01T08:52:09.770Z,57.28
2019-06-01T08:53:09.751Z,54.87
2019-06-01T08:54:09.731Z,54.07
2019-06-01T08:55:09.715Z,53.55
2019-06-01T08:56:12.695Z,52.55
2019-06-01T08:57:09.707Z,53.05
2019-06-01T08:58:09.688Z,51.64
2019-06-01T08:59:09.678Z,51.14
2019-06-01T09:00:09.665Z,52.04
2019-06-01T09:01:09.646Z,53.05
2019-06-01T09:02:09.653Z,53.74
2019-06-01T09:03:09.626Z,53.94
2019-06-01T09:04:09.618Z,53.24
2019-06-01T09:05:23.403Z,51.54
2019-06-01T09:06:10.596Z,52.24
2019-06-01T09:07:09.596Z,52.24
2019-06-01T09:08:09.570Z,51.14
2019-06-01T09:09:11.872Z,50.22
2019-06-01T09:10:09.545Z,49.91
2019-06-01T09:11:09.535Z,49.72
2019-06-01T09:12:09.555Z,50.52
2019-06-01T09:13:09.545Z,50.70
2019-06-01T09:14:09.507Z,48.79
2019-06-01T09:15:09.571Z,49.79
2019-06-01T09:16:09.579Z,49.29
2019-06-01T09:17:09.499Z,49.09
2019-06-01T09:18:09.469Z,51.20
2019-06-01T09:19:11.287Z,51.09
2019-06-01T09:20:09.435Z,51.57
2019-06-01T09:21:09.435Z,52.57
2019-06-01T09:22:09.435Z,52.80
2019-06-01T09:23:09.409Z,51.20
2019-06-01T09:24:09.395Z,50.79
2019-06-01T09:25:09.381Z,49.90
2019-06-01T09:26:09.376Z,50.59
2019-06-01T09:27:09.379Z,51.29
2019-06-01T09:28:09.345Z,53.30
2019-06-01T09:29:09.337Z,53.17
2019-06-01T09:30:09.337Z,51.57
2019-06-01T09:31:09.316Z,49.90
2019-06-01T09:32:11.127Z,50.99
2019-06-01T09:33:09.304Z,50.70
2019-06-01T09:34:09.287Z,49.99
2019-06-01T09:35:09.275Z,52.89
2019-06-01T09:36:09.266Z,53.37
2019-06-01T09:37:09.265Z,53.07
2019-06-01T09:38:09.259Z,51.07
2019-06-01T09:39:09.229Z,53.17
2019-06-01T09:40:09.233Z,53.47
2019-06-01T09:41:09.275Z,54.14
2019-06-01T09:42:09.195Z,51.34
2019-06-01T09:43:09.206Z,49.82
2019-06-01T09:44:09.185Z,50.72
2019-06-01T09:45:09.167Z,50.02
2019-06-01T09:46:09.172Z,50.02
2019-06-01T09:47:09.167Z,51.20
2019-06-01T09:48:09.148Z,49.40
2019-06-01T09:49:09.126Z,49.60
2019-06-01T09:50:09.107Z,49.50
2019-06-01T09:51:09.111Z,49.30
2019-06-01T09:52:12.255Z,49.80
2019-06-01T09:53:09.107Z,49.60
2019-06-01T09:54:09.071Z,48.30
2019-06-01T09:55:09.067Z,49.30
2019-06-01T09:56:09.044Z,48.10
2019-06-01T09:57:09.035Z,48.60
2019-06-01T09:58:09.035Z,46.80
2019-06-01T09:59:09.014Z,47.50
2019-06-01T10:00:09.010Z,46.20
2019-06-01T10:01:09.060Z,47.18
2019-06-01T10:02:08.999Z,48.68
2019-06-01T10:03:08.999Z,46.68
2019-06-01T10:04:08.976Z,47.58
2019-06-01T10:05:08.957Z,47.68
2019-06-01T10:06:08.944Z,47.48
2019-06-01T10:07:08.925Z,47.38
2019-06-01T10:08:08.925Z,46.58
2019-06-01T10:09:08.906Z,47.38
2019-06-01T10:10:08.888Z,46.28
2019-06-01T10:11:08.875Z,46.38
2019-06-01T10:12:08.875Z,46.08
2019-06-01T10:13:08.871Z,46.28
2019-06-01T10:14:08.847Z,46.76
2019-06-01T10:15:08.835Z,45.86
2019-06-01T10:16:08.825Z,46.96
2019-06-01T10:17:08.814Z,47.16
2019-06-01T10:18:08.815Z,47.66
2019-06-01T10:19:08.786Z,48.65
2019-06-01T10:20:08.782Z,45.66
2019-06-01T10:21:08.796Z,47.16
2019-06-01T10:22:08.755Z,47.36
2019-06-01T10:23:08.809Z,47.33
2019-06-01T10:24:08.759Z,46.84
2019-06-01T10:25:08.746Z,44.94
2019-06-01T10:26:08.715Z,44.05
2019-06-01T10:27:08.710Z,45.14
2019-06-01T10:28:08.715Z,43.85
2019-06-01T10:29:08.684Z,44.35
2019-06-01T10:30:08.682Z,43.55
2019-06-01T10:31:08.665Z,43.52
2019-06-01T10:32:08.659Z,44.42
2019-06-01T10:33:08.637Z,42.63
2019-06-01T10:34:08.646Z,44.42
2019-06-01T10:35:08.623Z,44.23
2019-06-01T10:36:20.078Z,44.23
2019-06-01T10:37:09.598Z,43.63
2019-06-01T10:38:08.593Z,44.02
2019-06-01T10:39:08.589Z,44.92
2019-06-01T10:40:08.565Z,44.62
2019-06-01T10:41:08.555Z,43.33
2019-06-01T10:42:08.546Z,43.23
2019-06-01T10:43:08.540Z,43.13
2019-06-01T10:44:08.538Z,43.73
2019-06-01T10:45:08.513Z,43.03
2019-06-01T10:46:08.515Z,44.23
2019-06-01T10:47:08.513Z,44.32
2019-06-01T10:48:08.489Z,41.93
2019-06-01T10:49:08.478Z,42.53
2019-06-01T10:50:08.488Z,40.74
2019-06-01T10:51:08.455Z,40.44
2019-06-01T10:52:08.436Z,41.33
2019-06-01T10:53:10.728Z,41.63
2019-06-01T10:54:08.426Z,41.24
2019-06-01T10:55:08.405Z,42.73
2019-06-01T10:56:08.400Z,43.23
2019-06-01T10:57:08.385Z,41.63
2019-06-01T10:58:08.373Z,41.03
2019-06-01T10:59:08.378Z,41.53
2019-06-01T11:00:08.355Z,41.53
2019-06-01T11:01:08.350Z,41.52
2019-06-01T11:02:08.332Z,42.41
2019-06-01T11:03:08.965Z,43.21
2019-06-01T11:04:08.383Z,42.41
2019-06-01T11:05:08.300Z,41.82
2019-06-01T11:06:09.005Z,41.02
2019-06-01T11:07:09.666Z,41.42
2019-06-01T11:08:08.266Z,40.62
2019-06-01T11:09:08.266Z,42.09
2019-06-01T11:10:08.247Z,40.90
2019-06-01T11:11:08.232Z,40.40
2019-06-01T11:12:08.224Z,42.39
2019-06-01T11:13:08.205Z,41.00
2019-06-01T11:14:08.221Z,39.70
2019-06-01T11:15:08.191Z,40.38
2019-06-01T11:16:08.175Z,40.18
2019-06-01T11:17:08.410Z,40.68
2019-06-01T11:18:09.450Z,38.49
2019-06-01T11:19:08.161Z,37.40
2019-06-01T11:20:08.125Z,38.20
2019-06-01T11:21:08.118Z,38.89
2019-06-01T11:22:08.106Z,39.39
2019-06-01T11:23:08.097Z,40.38
2019-06-01T11:24:08.098Z,39.78
2019-06-01T11:25:08.075Z,39.78
2019-06-01T11:26:08.064Z,39.59
2019-06-01T11:27:08.045Z,40.18
2019-06-01T11:28:08.047Z,41.17
2019-06-01T11:29:08.040Z,40.88
2019-06-01T11:30:08.016Z,39.89
2019-06-01T11:31:08.006Z,38.39
2019-06-01T11:32:07.998Z,37.99
2019-06-01T11:33:07.985Z,38.89
2019-06-01T11:34:07.995Z,39.01
2019-06-01T11:35:07.959Z,38.71
2019-06-01T11:36:07.954Z,39.48
2019-06-01T11:37:08.013Z,39.78
2019-06-01T11:38:07.938Z,38.49
2019-06-01T11:39:07.947Z,40.78
2019-06-01T11:40:07.917Z,40.28
2019-06-01T11:41:07.897Z,41.58
2019-06-01T11:42:07.887Z,40.38
2019-06-01T11:43:07.875Z,40.68
2019-06-01T11:44:07.864Z,41.47
2019-06-01T11:45:07.867Z,39.09
2019-06-01T11:46:07.847Z,40.56
2019-06-01T11:47:07.847Z,41.85
2019-06-01T11:48:07.816Z,42.15
2019-06-01T11:49:07.807Z,42.65
2019-06-01T11:50:07.806Z,42.05
2019-06-01T11:51:07.785Z,42.05
2019-06-01T11:52:07.766Z,40.46
2019-06-01T11:53:07.756Z,41.75
2019-06-01T11:54:07.747Z,43.92
2019-06-01T11:55:07.745Z,40.44
2019-06-01T11:56:07.727Z,38.65
2019-06-01T11:57:07.717Z,39.05
2019-06-01T11:58:07.742Z,39.25
2019-06-01T11:59:07.696Z,40.94
2019-06-01T12:00:07.703Z,39.84
2019-06-01T12:01:07.668Z,37.96
2019-06-01T12:02:07.664Z,39.05
2019-06-01T12:03:07.661Z,42.83
2019-06-01T12:04:07.640Z,40.34
2019-06-01T12:05:07.637Z,41.83
2019-06-01T12:06:07.615Z,41.42
2019-06-01T12:07:17.536Z,40.92
2019-06-01T12:08:08.606Z,39.53
2019-06-01T12:09:07.580Z,39.23
2019-06-01T12:10:07.576Z,38.83
2019-06-01T12:11:07.567Z,39.03
2019-06-01T12:12:07.547Z,38.73
2019-06-01T12:13:07.540Z,39.13
2019-06-01T12:14:07.528Z,40.12
2019-06-01T12:15:07.526Z,42.61
2019-06-01T12:16:07.510Z,42.51
2019-06-01T12:17:07.496Z,43.08
2019-06-01T12:18:07.492Z,41.89
2019-06-01T12:19:07.476Z,38.62
2019-06-01T12:20:07.499Z,39.51
2019-06-01T12:21:07.459Z,39.71
2019-06-01T12:22:07.461Z,39.21
2019-06-01T12:23:07.426Z,39.31
2019-06-01T12:24:07.434Z,38.30
2019-06-01T12:25:07.419Z,39.98
2019-06-01T12:26:07.390Z,41.38
2019-06-01T12:27:07.380Z,39.57
2019-06-01T12:28:07.376Z,40.66
2019-06-01T12:29:07.386Z,40.36
2019-06-01T12:30:07.381Z,38.58
2019-06-01T12:31:07.345Z,38.48
2019-06-01T12:32:07.356Z,37.98
2019-06-01T12:33:07.317Z,39.37
2019-06-01T12:34:07.323Z,37.69
2019-06-01T12:35:07.328Z,38.88
2019-06-01T12:36:07.291Z,40.07
2019-06-01T12:37:07.286Z,40.96
2019-06-01T12:38:07.298Z,39.37
2019-06-01T12:39:07.247Z,40.66
2019-06-01T12:40:07.895Z,37.49
2019-06-01T12:41:07.260Z,37.49
2019-06-01T12:42:07.334Z,39.57
2019-06-01T12:43:07.212Z,40.76
2019-06-01T12:44:07.205Z,38.18
2019-06-01T12:45:07.212Z,38.18
2019-06-01T12:46:07.985Z,37.88
2019-06-01T12:47:07.168Z,38.38
2019-06-01T12:48:07.187Z,40.07
2019-06-01T12:49:07.141Z,38.78
2019-06-01T12:50:07.194Z,38.58
2019-06-01T12:51:07.150Z,39.07
2019-06-01T12:52:07.127Z,37.88